PWSweather.com
Personal Weather Stations
Station Observations
MENWDWX1
Menstrie, ScotlandGB

MenstrieScotlandGB

Lat: 56.148322, Lon: -3.85483

Elevation: 62

Station Type: Davis Vantage Pro 2

High Low Average
Temperature 54.5°F12.5°C 34.4°F1.3°C 42.1°F5.6°C
Dew Point 48.7°F9.3°C 27.7°F-2.4°C 35.5°F1.9°C
Winds 21.9 mph 35.2 kmh 3.5 mph 5.6 kmh 11.0 mph W17.7 kmh W
Wind Gusts 33.4 mph53.8 kmh 5.8 mph9.3 kmh 17.0 mph27.4 kmh
Humidity 81% 68% 77%
Pressure 29.68 in1005.1 mb 29.22 in989.5 mb -
Precipitation 0.25 in6.4 mm - -
Hour Temp Dew Point Humidity Winds Wind Gusts Pressure Precip Precip Rate Daily Precip Total
12:00 AM 54.2°F12.3°C 48.2°F9.0°C 80% 10.4 mph SW16.7 kmh SW 17.3 mph27.8 kmh 29.32 in992.9 mb - 0.02 in0.5 mm 0.02 in0.5 mm
12:05 AM 54.1°F12.3°C 48.1°F8.9°C 80% 11.5 mph WSW18.5 kmh WSW 21.9 mph35.2 kmh 29.32 in992.9 mb - 0.01 in0.3 mm 0.01 in0.3 mm
12:10 AM 54.1°F12.3°C 48.1°F8.9°C 80% 12.7 mph SW20.4 kmh SW 19.6 mph31.5 kmh 29.31 in992.6 mb - 0.02 in0.5 mm 0.02 in0.5 mm
12:15 AM 54.1°F12.3°C 48.1°F8.9°C 80% 8.1 mph SW13.0 kmh SW 13.8 mph22.2 kmh 29.30 in992.2 mb - 0.02 in0.5 mm 0.03 in0.8 mm
12:20 AM 54.2°F12.3°C 48.1°F8.9°C 80% 13.8 mph SW22.2 kmh SW 15.0 mph24.1 kmh 29.30 in992.2 mb - 0.01 in0.3 mm 0.04 in1.0 mm
12:25 AM 54.2°F12.3°C 48.2°F9.0°C 80% 10.4 mph SW16.7 kmh SW 17.3 mph27.8 kmh 29.29 in991.9 mb - 0.01 in0.3 mm 0.05 in1.3 mm
12:30 AM 54.2°F12.3°C 48.2°F9.0°C 80% 10.4 mph SW16.7 kmh SW 18.4 mph29.6 kmh 29.29 in991.9 mb - 0.00 in0.0 mm 0.05 in1.3 mm
12:35 AM 54.1°F12.3°C 48.1°F8.9°C 80% 10.4 mph SW16.7 kmh SW 15.0 mph24.1 kmh 29.28 in991.5 mb - 0.01 in0.3 mm 0.06 in1.5 mm
12:40 AM 54.1°F12.3°C 48.1°F8.9°C 80% 8.1 mph SW13.0 kmh SW 12.7 mph20.4 kmh 29.28 in991.5 mb - 0.01 in0.3 mm 0.07 in1.8 mm
12:45 AM 54.2°F12.3°C 48.2°F9.0°C 80% 12.7 mph SW20.4 kmh SW 26.5 mph42.6 kmh 29.27 in991.2 mb - 0.00 in0.0 mm 0.07 in1.8 mm
12:50 AM 54.3°F12.4°C 48.2°F9.0°C 80% 12.7 mph SW20.4 kmh SW 21.9 mph35.2 kmh 29.27 in991.2 mb - 0.01 in0.3 mm 0.07 in1.8 mm
12:55 AM 54.3°F12.4°C 48.3°F9.1°C 80% 10.4 mph SW16.7 kmh SW 19.6 mph31.5 kmh 29.27 in991.2 mb - 0.01 in0.3 mm 0.08 in2.0 mm
01:00 AM 54.2°F12.3°C 48.2°F9.0°C 80% 12.7 mph SW20.4 kmh SW 18.4 mph29.6 kmh 29.27 in991.2 mb - 0.00 in0.0 mm 0.08 in2.0 mm
01:05 AM 54.3°F12.4°C 48.6°F9.2°C 81% 13.8 mph SW22.2 kmh SW 15.0 mph24.1 kmh 29.26 in990.9 mb - 0.02 in0.5 mm 0.10 in2.5 mm
01:10 AM 54.3°F12.4°C 48.6°F9.2°C 81% 12.7 mph SW20.4 kmh SW 20.7 mph33.3 kmh 29.26 in990.9 mb - 0.01 in0.3 mm 0.10 in2.5 mm
01:15 AM 54.3°F12.4°C 48.6°F9.2°C 81% 13.8 mph SW22.2 kmh SW 19.6 mph31.5 kmh 29.26 in990.9 mb - 0.00 in0.0 mm 0.10 in2.5 mm
01:20 AM 54.4°F12.4°C 48.7°F9.3°C 81% 9.2 mph SW14.8 kmh SW 13.8 mph22.2 kmh 29.25 in990.5 mb - 0.00 in0.0 mm 0.10 in2.5 mm
01:25 AM 54.3°F12.4°C 48.6°F9.2°C 81% 15.0 mph SW24.1 kmh SW 19.6 mph31.5 kmh 29.25 in990.5 mb - 0.01 in0.3 mm 0.11 in2.8 mm
01:30 AM 54.4°F12.4°C 48.7°F9.3°C 81% 16.1 mph SW25.9 kmh SW 24.2 mph38.9 kmh 29.25 in990.5 mb - 0.00 in0.0 mm 0.11 in2.8 mm
01:35 AM 54.4°F12.4°C 48.7°F9.3°C 81% 15.0 mph SW24.1 kmh SW 20.7 mph33.3 kmh 29.24 in990.2 mb - 0.00 in0.0 mm 0.11 in2.8 mm
01:40 AM 54.4°F12.4°C 48.7°F9.3°C 81% 8.1 mph SW13.0 kmh SW 19.6 mph31.5 kmh 29.24 in990.2 mb - 0.01 in0.3 mm 0.12 in3.0 mm
01:45 AM 54.4°F12.4°C 48.4°F9.1°C 80% 10.4 mph WSW16.7 kmh WSW 16.1 mph25.9 kmh 29.24 in990.2 mb - 0.01 in0.3 mm 0.12 in3.0 mm
01:50 AM 54.4°F12.4°C 48.4°F9.1°C 80% 15.0 mph WSW24.1 kmh WSW 20.7 mph33.3 kmh 29.23 in989.8 mb - 0.00 in0.0 mm 0.12 in3.0 mm
01:55 AM 54.4°F12.4°C 48.4°F9.1°C 80% 15.0 mph SW24.1 kmh SW 23.0 mph37.0 kmh 29.23 in989.8 mb - 0.01 in0.3 mm 0.12 in3.0 mm
02:00 AM 54.5°F12.5°C 48.5°F9.2°C 80% 15.0 mph SW24.1 kmh SW 21.9 mph35.2 kmh 29.23 in989.8 mb - 0.01 in0.3 mm 0.13 in3.3 mm
02:05 AM 54.4°F12.4°C 48.4°F9.1°C 80% 16.1 mph SW25.9 kmh SW 23.0 mph37.0 kmh 29.23 in989.8 mb - 0.00 in0.0 mm 0.13 in3.3 mm
02:10 AM 54.4°F12.4°C 48.4°F9.1°C 80% 12.7 mph SW20.4 kmh SW 17.3 mph27.8 kmh 29.22 in989.5 mb - 0.01 in0.3 mm 0.14 in3.6 mm
02:15 AM 54.4°F12.4°C 48.4°F9.1°C 80% 15.0 mph SW24.1 kmh SW 26.5 mph42.6 kmh 29.22 in989.5 mb - 0.01 in0.3 mm 0.15 in3.8 mm
02:20 AM 54.4°F12.4°C 48.3°F9.1°C 80% 12.7 mph SW20.4 kmh SW 18.4 mph29.6 kmh 29.22 in989.5 mb - 0.00 in0.0 mm 0.15 in3.8 mm
02:25 AM 54.4°F12.4°C 48.3°F9.1°C 80% 8.1 mph SW13.0 kmh SW 15.0 mph24.1 kmh 29.22 in989.5 mb - 0.00 in0.0 mm 0.15 in3.8 mm
02:30 AM 54.3°F12.4°C 48.3°F9.1°C 80% 17.3 mph SW27.8 kmh SW 27.6 mph44.4 kmh 29.22 in989.5 mb - 0.00 in0.0 mm 0.15 in3.8 mm
02:35 AM 54.2°F12.3°C 47.9°F8.8°C 79% 16.1 mph SW25.9 kmh SW 19.6 mph31.5 kmh 29.23 in989.8 mb - 0.00 in0.0 mm 0.15 in3.8 mm
02:40 AM 53.9°F12.2°C 47.5°F8.6°C 79% 12.7 mph WSW20.4 kmh WSW 18.4 mph29.6 kmh 29.22 in989.5 mb - 0.00 in0.0 mm 0.15 in3.8 mm
02:45 AM 53.2°F11.8°C 46.8°F8.2°C 79% 15.0 mph WSW24.1 kmh WSW 24.2 mph38.9 kmh 29.23 in989.8 mb - 0.00 in0.0 mm 0.15 in3.8 mm
02:50 AM 52.6°F11.4°C 45.9°F7.7°C 78% 12.7 mph WSW20.4 kmh WSW 19.6 mph31.5 kmh 29.24 in990.2 mb - 0.00 in0.0 mm 0.15 in3.8 mm
02:55 AM 51.7°F10.9°C 45.1°F7.3°C 78% 15.0 mph WSW24.1 kmh WSW 19.6 mph31.5 kmh 29.25 in990.5 mb - 0.00 in0.0 mm 0.15 in3.8 mm
03:00 AM 50.7°F10.4°C 43.7°F6.5°C 77% 17.3 mph WSW27.8 kmh WSW 27.6 mph44.4 kmh 29.25 in990.5 mb - 0.00 in0.0 mm 0.15 in3.8 mm
03:05 AM 50.1°F10.1°C 43.1°F6.2°C 77% 11.5 mph W18.5 kmh W 19.6 mph31.5 kmh 29.26 in990.9 mb - 0.00 in0.0 mm 0.15 in3.8 mm
03:10 AM 49.6°F9.8°C 42.7°F5.9°C 77% 13.8 mph W22.2 kmh W 18.4 mph29.6 kmh 29.27 in991.2 mb - 0.00 in0.0 mm 0.15 in3.8 mm
03:15 AM 49.2°F9.6°C 42.6°F5.9°C 78% 9.2 mph W14.8 kmh W 10.4 mph16.7 kmh 29.27 in991.2 mb - 0.00 in0.0 mm 0.15 in3.8 mm
03:20 AM 48.8°F9.3°C 41.9°F5.5°C 77% 8.1 mph WSW13.0 kmh WSW 13.8 mph22.2 kmh 29.27 in991.2 mb - 0.00 in0.0 mm 0.15 in3.8 mm
03:25 AM 48.3°F9.1°C 41.4°F5.2°C 77% 13.8 mph W22.2 kmh W 16.1 mph25.9 kmh 29.27 in991.2 mb - 0.00 in0.0 mm 0.15 in3.8 mm
03:30 AM 47.8°F8.8°C 41.0°F5.0°C 77% 16.1 mph W25.9 kmh W 24.2 mph38.9 kmh 29.27 in991.2 mb - 0.00 in0.0 mm 0.15 in3.8 mm
03:35 AM 47.4°F8.6°C 40.6°F4.8°C 77% 16.1 mph W25.9 kmh W 21.9 mph35.2 kmh 29.27 in991.2 mb - 0.00 in0.0 mm 0.15 in3.8 mm
03:40 AM 47.1°F8.4°C 40.3°F4.6°C 77% 16.1 mph W25.9 kmh W 29.9 mph48.1 kmh 29.28 in991.5 mb - 0.00 in0.0 mm 0.15 in3.8 mm
03:45 AM 46.8°F8.2°C 39.9°F4.4°C 77% 19.6 mph W31.5 kmh W 29.9 mph48.1 kmh 29.28 in991.5 mb - 0.00 in0.0 mm 0.15 in3.8 mm
03:50 AM 46.4°F8.0°C 39.6°F4.2°C 77% 13.8 mph WSW22.2 kmh WSW 21.9 mph35.2 kmh 29.28 in991.5 mb - 0.00 in0.0 mm 0.15 in3.8 mm
03:55 AM 46.2°F7.9°C 39.4°F4.1°C 77% 19.6 mph W31.5 kmh W 28.8 mph46.3 kmh 29.28 in991.5 mb - 0.00 in0.0 mm 0.15 in3.8 mm
04:00 AM 46.0°F7.8°C 39.2°F4.0°C 77% 15.0 mph W24.1 kmh W 17.3 mph27.8 kmh 29.29 in991.9 mb - 0.00 in0.0 mm 0.15 in3.8 mm
04:05 AM 45.6°F7.6°C 38.8°F3.8°C 77% 15.0 mph WSW24.1 kmh WSW 26.5 mph42.6 kmh 29.29 in991.9 mb - 0.00 in0.0 mm 0.15 in3.8 mm
04:10 AM 45.4°F7.4°C 38.6°F3.7°C 77% 13.8 mph W22.2 kmh W 18.4 mph29.6 kmh 29.30 in992.2 mb - 0.00 in0.0 mm 0.15 in3.8 mm
04:15 AM 45.1°F7.3°C 38.3°F3.5°C 77% 9.2 mph WNW14.8 kmh WNW 16.1 mph25.9 kmh 29.30 in992.2 mb - 0.00 in0.0 mm 0.15 in3.8 mm
04:20 AM 44.7°F7.1°C 38.0°F3.3°C 77% 10.4 mph W16.7 kmh W 16.1 mph25.9 kmh 29.30 in992.2 mb - 0.00 in0.0 mm 0.15 in3.8 mm
04:25 AM 44.4°F6.9°C 37.7°F3.2°C 77% 8.1 mph W13.0 kmh W 11.5 mph18.5 kmh 29.30 in992.2 mb - 0.00 in0.0 mm 0.15 in3.8 mm
04:30 AM 44.2°F6.8°C 37.4°F3.0°C 77% 8.1 mph W13.0 kmh W 10.4 mph16.7 kmh 29.30 in992.2 mb - 0.00 in0.0 mm 0.15 in3.8 mm
04:35 AM 44.0°F6.7°C 37.3°F2.9°C 77% 6.9 mph W11.1 kmh W 8.1 mph13.0 kmh 29.30 in992.2 mb - 0.00 in0.0 mm 0.15 in3.8 mm
04:40 AM 43.9°F6.6°C 36.5°F2.5°C 75% 11.5 mph WSW18.5 kmh WSW 18.4 mph29.6 kmh 29.30 in992.2 mb - 0.00 in0.0 mm 0.15 in3.8 mm
04:45 AM 44.0°F6.7°C 36.6°F2.6°C 75% 12.7 mph WSW20.4 kmh WSW 16.1 mph25.9 kmh 29.30 in992.2 mb - 0.00 in0.0 mm 0.15 in3.8 mm
04:50 AM 44.1°F6.7°C 36.3°F2.4°C 74% 11.5 mph W18.5 kmh W 17.3 mph27.8 kmh 29.29 in991.9 mb - 0.00 in0.0 mm 0.15 in3.8 mm
04:55 AM 43.8°F6.6°C 36.4°F2.4°C 75% 11.5 mph W18.5 kmh W 17.3 mph27.8 kmh 29.30 in992.2 mb - 0.00 in0.0 mm 0.15 in3.8 mm
05:00 AM 43.8°F6.6°C 36.0°F2.2°C 74% 11.5 mph WSW18.5 kmh WSW 16.1 mph25.9 kmh 29.29 in991.9 mb - 0.00 in0.0 mm 0.15 in3.8 mm
05:05 AM 43.7°F6.5°C 36.0°F2.2°C 74% 9.2 mph WSW14.8 kmh WSW 17.3 mph27.8 kmh 29.29 in991.9 mb - 0.00 in0.0 mm 0.15 in3.8 mm
05:10 AM 43.7°F6.5°C 36.0°F2.2°C 74% 12.7 mph WSW20.4 kmh WSW 16.1 mph25.9 kmh 29.30 in992.2 mb - 0.00 in0.0 mm 0.15 in3.8 mm
05:15 AM 43.9°F6.6°C 36.1°F2.3°C 74% 12.7 mph WSW20.4 kmh WSW 20.7 mph33.3 kmh 29.29 in991.9 mb - 0.00 in0.0 mm 0.15 in3.8 mm
05:20 AM 44.0°F6.7°C 36.2°F2.3°C 74% 10.4 mph WSW16.7 kmh WSW 13.8 mph22.2 kmh 29.29 in991.9 mb - 0.00 in0.0 mm 0.15 in3.8 mm
05:25 AM 44.0°F6.7°C 36.3°F2.4°C 74% 9.2 mph WSW14.8 kmh WSW 12.7 mph20.4 kmh 29.29 in991.9 mb - 0.00 in0.0 mm 0.15 in3.8 mm
05:30 AM 44.3°F6.8°C 36.5°F2.5°C 74% 12.7 mph SW20.4 kmh SW 16.1 mph25.9 kmh 29.29 in991.9 mb - 0.00 in0.0 mm 0.15 in3.8 mm
05:35 AM 44.3°F6.8°C 36.6°F2.6°C 74% 11.5 mph SW18.5 kmh SW 16.1 mph25.9 kmh 29.29 in991.9 mb - 0.00 in0.0 mm 0.15 in3.8 mm
05:40 AM 44.4°F6.9°C 36.6°F2.6°C 74% 9.2 mph WSW14.8 kmh WSW 12.7 mph20.4 kmh 29.29 in991.9 mb - 0.00 in0.0 mm 0.15 in3.8 mm
05:45 AM 44.4°F6.9°C 36.6°F2.6°C 74% 13.8 mph WSW22.2 kmh WSW 19.6 mph31.5 kmh 29.29 in991.9 mb - 0.00 in0.0 mm 0.15 in3.8 mm
05:50 AM 44.5°F6.9°C 36.7°F2.6°C 74% 12.7 mph WSW20.4 kmh WSW 18.4 mph29.6 kmh 29.28 in991.5 mb - 0.00 in0.0 mm 0.15 in3.8 mm
05:55 AM 44.5°F6.9°C 37.1°F2.8°C 75% 15.0 mph W24.1 kmh W 19.6 mph31.5 kmh 29.28 in991.5 mb - 0.00 in0.0 mm 0.15 in3.8 mm
06:00 AM 44.5°F6.9°C 37.1°F2.8°C 75% 15.0 mph WSW24.1 kmh WSW 19.6 mph31.5 kmh 29.27 in991.2 mb - 0.00 in0.0 mm 0.15 in3.8 mm
06:05 AM 44.8°F7.1°C 37.1°F2.8°C 74% 18.4 mph WSW29.6 kmh WSW 29.9 mph48.1 kmh 29.27 in991.2 mb - 0.00 in0.0 mm 0.15 in3.8 mm
06:10 AM 45.2°F7.3°C 37.4°F3.0°C 74% 17.3 mph WSW27.8 kmh WSW 25.3 mph40.7 kmh 29.27 in991.2 mb - 0.00 in0.0 mm 0.15 in3.8 mm
06:15 AM 45.2°F7.3°C 37.7°F3.2°C 75% 16.1 mph WSW25.9 kmh WSW 21.9 mph35.2 kmh 29.27 in991.2 mb - 0.00 in0.0 mm 0.15 in3.8 mm
06:20 AM 45.3°F7.4°C 37.8°F3.2°C 75% 18.4 mph WSW29.6 kmh WSW 26.5 mph42.6 kmh 29.28 in991.5 mb - 0.00 in0.0 mm 0.15 in3.8 mm
06:25 AM 45.4°F7.4°C 37.9°F3.3°C 75% 17.3 mph WSW27.8 kmh WSW 20.7 mph33.3 kmh 29.28 in991.5 mb - 0.00 in0.0 mm 0.15 in3.8 mm
06:30 AM 45.5°F7.5°C 38.0°F3.3°C 75% 17.3 mph WSW27.8 kmh WSW 23.0 mph37.0 kmh 29.27 in991.2 mb - 0.00 in0.0 mm 0.15 in3.8 mm
06:35 AM 45.5°F7.5°C 38.0°F3.3°C 75% 17.3 mph WSW27.8 kmh WSW 19.6 mph31.5 kmh 29.27 in991.2 mb - 0.00 in0.0 mm 0.15 in3.8 mm
06:40 AM 45.6°F7.6°C 37.8°F3.2°C 74% 18.4 mph WSW29.6 kmh WSW 25.3 mph40.7 kmh 29.28 in991.5 mb - 0.00 in0.0 mm 0.15 in3.8 mm
06:45 AM 45.7°F7.6°C 37.9°F3.3°C 74% 18.4 mph WSW29.6 kmh WSW 26.5 mph42.6 kmh 29.28 in991.5 mb - 0.00 in0.0 mm 0.15 in3.8 mm
06:50 AM 45.8°F7.7°C 38.0°F3.3°C 74% 16.1 mph WSW25.9 kmh WSW 25.3 mph40.7 kmh 29.28 in991.5 mb - 0.00 in0.0 mm 0.15 in3.8 mm
06:55 AM 45.8°F7.7°C 38.0°F3.3°C 74% 17.3 mph SW27.8 kmh SW 28.8 mph46.3 kmh 29.28 in991.5 mb - 0.00 in0.0 mm 0.15 in3.8 mm
07:00 AM 45.6°F7.6°C 38.1°F3.4°C 75% 16.1 mph WSW25.9 kmh WSW 23.0 mph37.0 kmh 29.28 in991.5 mb - 0.00 in0.0 mm 0.15 in3.8 mm
07:05 AM 45.4°F7.4°C 38.0°F3.3°C 75% 13.8 mph WSW22.2 kmh WSW 17.3 mph27.8 kmh 29.27 in991.2 mb - 0.00 in0.0 mm 0.15 in3.8 mm
07:10 AM 45.5°F7.5°C 38.0°F3.3°C 75% 21.9 mph WSW35.2 kmh WSW 32.2 mph51.8 kmh 29.28 in991.5 mb - 0.00 in0.0 mm 0.15 in3.8 mm
07:15 AM 45.6°F7.6°C 38.1°F3.4°C 75% 21.9 mph WSW35.2 kmh WSW 29.9 mph48.1 kmh 29.29 in991.9 mb - 0.00 in0.0 mm 0.15 in3.8 mm
07:20 AM 45.0°F7.2°C 37.9°F3.3°C 76% 19.6 mph WSW31.5 kmh WSW 24.2 mph38.9 kmh 29.28 in991.5 mb - 0.00 in0.0 mm 0.15 in3.8 mm
07:25 AM 44.6°F7.0°C 37.5°F3.1°C 76% 15.0 mph WSW24.1 kmh WSW 21.9 mph35.2 kmh 29.29 in991.9 mb - 0.00 in0.0 mm 0.15 in3.8 mm
07:30 AM 44.5°F6.9°C 37.8°F3.2°C 77% 18.4 mph WSW29.6 kmh WSW 32.2 mph51.8 kmh 29.28 in991.5 mb - 0.00 in0.0 mm 0.15 in3.8 mm
07:35 AM 44.3°F6.8°C 37.6°F3.1°C 77% 15.0 mph WSW24.1 kmh WSW 24.2 mph38.9 kmh 29.29 in991.9 mb - 0.00 in0.0 mm 0.15 in3.8 mm
07:40 AM 44.0°F6.7°C 37.3°F2.9°C 77% 11.5 mph WSW18.5 kmh WSW 19.6 mph31.5 kmh 29.29 in991.9 mb - 0.00 in0.0 mm 0.15 in3.8 mm
07:45 AM 43.9°F6.6°C 37.2°F2.9°C 77% 16.1 mph WSW25.9 kmh WSW 32.2 mph51.8 kmh 29.30 in992.2 mb - 0.00 in0.0 mm 0.15 in3.8 mm
07:50 AM 43.7°F6.5°C 37.3°F2.9°C 78% 11.5 mph WSW18.5 kmh WSW 16.1 mph25.9 kmh 29.30 in992.2 mb - 0.00 in0.0 mm 0.15 in3.8 mm
07:55 AM 43.3°F6.3°C 36.9°F2.7°C 78% 10.4 mph WSW16.7 kmh WSW 17.3 mph27.8 kmh 29.30 in992.2 mb - 0.00 in0.0 mm 0.15 in3.8 mm
08:00 AM 43.2°F6.2°C 36.8°F2.7°C 78% 10.4 mph W16.7 kmh W 16.1 mph25.9 kmh 29.30 in992.2 mb - 0.00 in0.0 mm 0.15 in3.8 mm
08:05 AM 43.3°F6.3°C 36.6°F2.6°C 77% 13.8 mph WSW22.2 kmh WSW 20.7 mph33.3 kmh 29.30 in992.2 mb - 0.00 in0.0 mm 0.15 in3.8 mm
08:10 AM 43.7°F6.5°C 37.0°F2.8°C 77% 12.7 mph WSW20.4 kmh WSW 21.9 mph35.2 kmh 29.30 in992.2 mb - 0.00 in0.0 mm 0.15 in3.8 mm
08:15 AM 43.9°F6.6°C 37.2°F2.9°C 77% 12.7 mph WSW20.4 kmh WSW 23.0 mph37.0 kmh 29.31 in992.6 mb - 0.00 in0.0 mm 0.15 in3.8 mm
08:20 AM 44.2°F6.8°C 37.4°F3.0°C 77% 12.7 mph WSW20.4 kmh WSW 18.4 mph29.6 kmh 29.31 in992.6 mb - 0.00 in0.0 mm 0.15 in3.8 mm
08:25 AM 44.3°F6.8°C 37.3°F2.9°C 76% 13.8 mph WSW22.2 kmh WSW 20.7 mph33.3 kmh 29.31 in992.6 mb - 0.00 in0.0 mm 0.15 in3.8 mm
08:30 AM 44.5°F6.9°C 37.4°F3.0°C 76% 11.5 mph WSW18.5 kmh WSW 16.1 mph25.9 kmh 29.31 in992.6 mb - 0.00 in0.0 mm 0.15 in3.8 mm
08:35 AM 44.4°F6.9°C 37.0°F2.8°C 75% 10.4 mph W16.7 kmh W 15.0 mph24.1 kmh 29.32 in992.9 mb - 0.00 in0.0 mm 0.15 in3.8 mm
08:40 AM 44.3°F6.8°C 36.6°F2.6°C 74% 16.1 mph WSW25.9 kmh WSW 26.5 mph42.6 kmh 29.32 in992.9 mb - 0.00 in0.0 mm 0.15 in3.8 mm
08:45 AM 44.5°F6.9°C 36.7°F2.6°C 74% 12.7 mph WSW20.4 kmh WSW 19.6 mph31.5 kmh 29.33 in993.2 mb - 0.00 in0.0 mm 0.15 in3.8 mm
08:50 AM 44.5°F6.9°C 36.7°F2.6°C 74% 11.5 mph W18.5 kmh W 19.6 mph31.5 kmh 29.33 in993.2 mb - 0.00 in0.0 mm 0.15 in3.8 mm
08:55 AM 44.4°F6.9°C 36.6°F2.6°C 74% 15.0 mph WSW24.1 kmh WSW 19.6 mph31.5 kmh 29.34 in993.6 mb - 0.00 in0.0 mm 0.15 in3.8 mm
09:00 AM 44.4°F6.9°C 36.6°F2.6°C 74% 13.8 mph WSW22.2 kmh WSW 18.4 mph29.6 kmh 29.35 in993.9 mb - 0.00 in0.0 mm 0.15 in3.8 mm
09:05 AM 44.1°F6.7°C 36.7°F2.6°C 75% 18.4 mph WSW29.6 kmh WSW 24.2 mph38.9 kmh 29.35 in993.9 mb - 0.00 in0.0 mm 0.15 in3.8 mm
09:10 AM 43.5°F6.4°C 36.4°F2.4°C 76% 19.6 mph W31.5 kmh W 26.5 mph42.6 kmh 29.36 in994.2 mb - 0.01 in0.3 mm 0.16 in4.1 mm
09:15 AM 42.8°F6.0°C 36.1°F2.3°C 77% 11.5 mph W18.5 kmh W 21.9 mph35.2 kmh 29.37 in994.6 mb - 0.00 in0.0 mm 0.16 in4.1 mm
09:20 AM 42.1°F5.6°C 35.4°F1.9°C 77% 10.4 mph W16.7 kmh W 12.7 mph20.4 kmh 29.37 in994.6 mb - 0.00 in0.0 mm 0.16 in4.1 mm
09:25 AM 41.7°F5.4°C 35.3°F1.8°C 78% 10.4 mph WSW16.7 kmh WSW 18.4 mph29.6 kmh 29.37 in994.6 mb - 0.00 in0.0 mm 0.16 in4.1 mm
09:30 AM 41.4°F5.2°C 35.1°F1.7°C 78% 10.4 mph WSW16.7 kmh WSW 12.7 mph20.4 kmh 29.37 in994.6 mb - 0.00 in0.0 mm 0.16 in4.1 mm
09:35 AM 41.4°F5.2°C 35.1°F1.7°C 78% 6.9 mph W11.1 kmh W 10.4 mph16.7 kmh 29.38 in994.9 mb - 0.00 in0.0 mm 0.16 in4.1 mm
09:40 AM 41.3°F5.2°C 35.0°F1.7°C 78% 8.1 mph W13.0 kmh W 11.5 mph18.5 kmh 29.38 in994.9 mb - 0.00 in0.0 mm 0.16 in4.1 mm
09:45 AM 41.4°F5.2°C 35.1°F1.7°C 78% 6.9 mph WSW11.1 kmh WSW 12.7 mph20.4 kmh 29.38 in994.9 mb - 0.00 in0.0 mm 0.16 in4.1 mm
09:50 AM 41.6°F5.3°C 35.2°F1.8°C 78% 10.4 mph WSW16.7 kmh WSW 19.6 mph31.5 kmh 29.38 in994.9 mb - 0.00 in0.0 mm 0.16 in4.1 mm
09:55 AM 41.9°F5.5°C 35.2°F1.8°C 77% 13.8 mph WSW22.2 kmh WSW 23.0 mph37.0 kmh 29.38 in994.9 mb - 0.00 in0.0 mm 0.16 in4.1 mm
10:00 AM 41.8°F5.4°C 35.1°F1.7°C 77% 10.4 mph W16.7 kmh W 17.3 mph27.8 kmh 29.39 in995.3 mb - 0.00 in0.0 mm 0.16 in4.1 mm
10:05 AM 41.8°F5.4°C 35.1°F1.7°C 77% 9.2 mph W14.8 kmh W 11.5 mph18.5 kmh 29.39 in995.3 mb - 0.00 in0.0 mm 0.16 in4.1 mm
10:10 AM 42.0°F5.6°C 35.3°F1.8°C 77% 8.1 mph W13.0 kmh W 12.7 mph20.4 kmh 29.39 in995.3 mb - 0.00 in0.0 mm 0.16 in4.1 mm
10:15 AM 41.9°F5.5°C 35.2°F1.8°C 77% 8.1 mph WSW13.0 kmh WSW 13.8 mph22.2 kmh 29.40 in995.6 mb - 0.00 in0.0 mm 0.16 in4.1 mm
10:20 AM 41.7°F5.4°C 35.0°F1.7°C 77% 10.4 mph WSW16.7 kmh WSW 13.8 mph22.2 kmh 29.40 in995.6 mb - 0.00 in0.0 mm 0.16 in4.1 mm
10:25 AM 41.6°F5.3°C 35.2°F1.8°C 78% 5.8 mph WSW9.3 kmh WSW 9.2 mph14.8 kmh 29.40 in995.6 mb - 0.00 in0.0 mm 0.16 in4.1 mm
10:30 AM 41.5°F5.3°C 35.2°F1.8°C 78% 6.9 mph W11.1 kmh W 9.2 mph14.8 kmh 29.40 in995.6 mb - 0.00 in0.0 mm 0.16 in4.1 mm
10:35 AM 41.6°F5.3°C 35.2°F1.8°C 78% 5.8 mph WSW9.3 kmh WSW 8.1 mph13.0 kmh 29.40 in995.6 mb - 0.00 in0.0 mm 0.16 in4.1 mm
10:40 AM 41.8°F5.4°C 35.1°F1.7°C 77% 9.2 mph WSW14.8 kmh WSW 13.8 mph22.2 kmh 29.41 in995.9 mb - 0.00 in0.0 mm 0.16 in4.1 mm
10:45 AM 42.3°F5.7°C 35.6°F2.0°C 77% 12.7 mph WSW20.4 kmh WSW 21.9 mph35.2 kmh 29.41 in995.9 mb - 0.00 in0.0 mm 0.16 in4.1 mm
10:50 AM 42.5°F5.8°C 35.5°F1.9°C 76% 10.4 mph WSW16.7 kmh WSW 11.5 mph18.5 kmh 29.40 in995.6 mb - 0.00 in0.0 mm 0.16 in4.1 mm
10:55 AM 42.6°F5.9°C 35.6°F2.0°C 76% 8.1 mph W13.0 kmh W 12.7 mph20.4 kmh 29.41 in995.9 mb - 0.00 in0.0 mm 0.16 in4.1 mm
11:00 AM 42.7°F5.9°C 35.7°F2.1°C 76% 6.9 mph W11.1 kmh W 11.5 mph18.5 kmh 29.41 in995.9 mb - 0.00 in0.0 mm 0.16 in4.1 mm
11:05 AM 42.7°F5.9°C 35.7°F2.1°C 76% 10.4 mph WSW16.7 kmh WSW 18.4 mph29.6 kmh 29.42 in996.3 mb - 0.00 in0.0 mm 0.16 in4.1 mm
11:10 AM 42.6°F5.9°C 35.6°F2.0°C 76% 20.7 mph W33.3 kmh W 33.4 mph53.8 kmh 29.43 in996.6 mb - 0.00 in0.0 mm 0.16 in4.1 mm
11:15 AM 42.3°F5.7°C 35.3°F1.8°C 76% 17.3 mph WSW27.8 kmh WSW 26.5 mph42.6 kmh 29.43 in996.6 mb - 0.00 in0.0 mm 0.16 in4.1 mm
11:20 AM 41.9°F5.5°C 35.2°F1.8°C 77% 11.5 mph WSW18.5 kmh WSW 19.6 mph31.5 kmh 29.43 in996.6 mb - 0.00 in0.0 mm 0.16 in4.1 mm
11:25 AM 41.5°F5.3°C 34.9°F1.6°C 77% 12.7 mph WSW20.4 kmh WSW 19.6 mph31.5 kmh 29.43 in996.6 mb - 0.00 in0.0 mm 0.16 in4.1 mm
11:30 AM 41.2°F5.1°C 34.5°F1.4°C 77% 12.7 mph WSW20.4 kmh WSW 17.3 mph27.8 kmh 29.43 in996.6 mb - 0.00 in0.0 mm 0.16 in4.1 mm
11:35 AM 41.1°F5.1°C 34.4°F1.3°C 77% 8.1 mph W13.0 kmh W 15.0 mph24.1 kmh 29.43 in996.6 mb - 0.00 in0.0 mm 0.16 in4.1 mm
11:40 AM 41.1°F5.1°C 34.4°F1.3°C 77% 6.9 mph W11.1 kmh W 10.4 mph16.7 kmh 29.43 in996.6 mb - 0.00 in0.0 mm 0.16 in4.1 mm
11:45 AM 41.3°F5.2°C 34.6°F1.4°C 77% 6.9 mph WSW11.1 kmh WSW 11.5 mph18.5 kmh 29.43 in996.6 mb - 0.00 in0.0 mm 0.16 in4.1 mm
11:50 AM 41.5°F5.3°C 34.8°F1.6°C 77% 8.1 mph W13.0 kmh W 13.8 mph22.2 kmh 29.43 in996.6 mb - 0.00 in0.0 mm 0.16 in4.1 mm
11:55 AM 41.8°F5.4°C 34.8°F1.6°C 76% 15.0 mph W24.1 kmh W 32.2 mph51.8 kmh 29.43 in996.6 mb - 0.00 in0.0 mm 0.16 in4.1 mm
12:00 PM 42.2°F5.7°C 34.9°F1.6°C 75% 18.4 mph W29.6 kmh W 27.6 mph44.4 kmh 29.43 in996.6 mb - 0.00 in0.0 mm 0.16 in4.1 mm
12:05 PM 42.6°F5.9°C 35.2°F1.8°C 75% 12.7 mph W20.4 kmh W 19.6 mph31.5 kmh 29.44 in997.0 mb - 0.00 in0.0 mm 0.16 in4.1 mm
12:10 PM 42.8°F6.0°C 35.8°F2.1°C 76% 12.7 mph W20.4 kmh W 19.6 mph31.5 kmh 29.44 in997.0 mb - 0.00 in0.0 mm 0.16 in4.1 mm
12:15 PM 42.9°F6.1°C 35.5°F1.9°C 75% 12.7 mph WSW20.4 kmh WSW 25.3 mph40.7 kmh 29.44 in997.0 mb - 0.00 in0.0 mm 0.16 in4.1 mm
12:20 PM 41.7°F5.4°C 35.0°F1.7°C 77% 18.4 mph WSW29.6 kmh WSW 28.8 mph46.3 kmh 29.45 in997.3 mb - 0.00 in0.0 mm 0.16 in4.1 mm
12:25 PM 40.7°F4.8°C 34.3°F1.3°C 78% 11.5 mph WSW18.5 kmh WSW 19.6 mph31.5 kmh 29.45 in997.3 mb - 0.00 in0.0 mm 0.16 in4.1 mm
12:30 PM 40.4°F4.7°C 34.1°F1.2°C 78% 9.2 mph WSW14.8 kmh WSW 15.0 mph24.1 kmh 29.45 in997.3 mb - 0.00 in0.0 mm 0.16 in4.1 mm
12:35 PM 40.4°F4.7°C 34.1°F1.2°C 78% 9.2 mph WSW14.8 kmh WSW 12.7 mph20.4 kmh 29.45 in997.3 mb - 0.00 in0.0 mm 0.16 in4.1 mm
12:40 PM 40.5°F4.7°C 34.1°F1.2°C 78% 10.4 mph W16.7 kmh W 11.5 mph18.5 kmh 29.45 in997.3 mb - 0.00 in0.0 mm 0.16 in4.1 mm
12:45 PM 40.6°F4.8°C 34.3°F1.3°C 78% 8.1 mph W13.0 kmh W 11.5 mph18.5 kmh 29.45 in997.3 mb - 0.00 in0.0 mm 0.16 in4.1 mm
12:50 PM 41.2°F5.1°C 34.5°F1.4°C 77% 10.4 mph WSW16.7 kmh WSW 12.7 mph20.4 kmh 29.45 in997.3 mb - 0.00 in0.0 mm 0.16 in4.1 mm
12:55 PM 41.5°F5.3°C 34.8°F1.6°C 77% 10.4 mph WSW16.7 kmh WSW 18.4 mph29.6 kmh 29.45 in997.3 mb - 0.00 in0.0 mm 0.16 in4.1 mm
01:00 PM 41.6°F5.3°C 34.6°F1.4°C 76% 8.1 mph WSW13.0 kmh WSW 11.5 mph18.5 kmh 29.45 in997.3 mb - 0.00 in0.0 mm 0.16 in4.1 mm
01:05 PM 41.7°F5.4°C 34.7°F1.5°C 76% 11.5 mph WSW18.5 kmh WSW 18.4 mph29.6 kmh 29.45 in997.3 mb - 0.00 in0.0 mm 0.16 in4.1 mm
01:10 PM 42.0°F5.6°C 35.0°F1.7°C 76% 10.4 mph W16.7 kmh W 16.1 mph25.9 kmh 29.45 in997.3 mb - 0.00 in0.0 mm 0.16 in4.1 mm
01:15 PM 42.0°F5.6°C 35.0°F1.7°C 76% 8.1 mph W13.0 kmh W 11.5 mph18.5 kmh 29.45 in997.3 mb - 0.00 in0.0 mm 0.16 in4.1 mm
01:20 PM 41.9°F5.5°C 34.9°F1.6°C 76% 6.9 mph W11.1 kmh W 10.4 mph16.7 kmh 29.45 in997.3 mb - 0.00 in0.0 mm 0.16 in4.1 mm
01:25 PM 42.2°F5.7°C 35.2°F1.8°C 76% 5.8 mph WSW9.3 kmh WSW 13.8 mph22.2 kmh 29.46 in997.6 mb - 0.00 in0.0 mm 0.16 in4.1 mm
01:30 PM 42.5°F5.8°C 35.1°F1.7°C 75% 8.1 mph WSW13.0 kmh WSW 12.7 mph20.4 kmh 29.46 in997.6 mb - 0.00 in0.0 mm 0.16 in4.1 mm
01:35 PM 42.7°F5.9°C 35.0°F1.7°C 74% 9.2 mph W14.8 kmh W 12.7 mph20.4 kmh 29.45 in997.3 mb - 0.00 in0.0 mm 0.16 in4.1 mm
01:40 PM 42.9°F6.1°C 34.8°F1.6°C 73% 10.4 mph WSW16.7 kmh WSW 12.7 mph20.4 kmh 29.45 in997.3 mb - 0.00 in0.0 mm 0.16 in4.1 mm
01:45 PM 43.1°F6.2°C 35.0°F1.7°C 73% 10.4 mph WSW16.7 kmh WSW 13.8 mph22.2 kmh 29.45 in997.3 mb - 0.00 in0.0 mm 0.16 in4.1 mm
01:50 PM 43.3°F6.3°C 35.2°F1.8°C 73% 11.5 mph WSW18.5 kmh WSW 16.1 mph25.9 kmh 29.45 in997.3 mb - 0.00 in0.0 mm 0.16 in4.1 mm
01:55 PM 43.4°F6.3°C 35.0°F1.7°C 72% 12.7 mph WSW20.4 kmh WSW 18.4 mph29.6 kmh 29.45 in997.3 mb - 0.00 in0.0 mm 0.16 in4.1 mm
02:00 PM 43.7°F6.5°C 35.2°F1.8°C 72% 11.5 mph WSW18.5 kmh WSW 16.1 mph25.9 kmh 29.45 in997.3 mb - 0.00 in0.0 mm 0.16 in4.1 mm
02:05 PM 43.8°F6.6°C 35.0°F1.7°C 71% 6.9 mph WSW11.1 kmh WSW 10.4 mph16.7 kmh 29.45 in997.3 mb - 0.00 in0.0 mm 0.16 in4.1 mm
02:10 PM 44.0°F6.7°C 35.2°F1.8°C 71% 8.1 mph WSW13.0 kmh WSW 8.1 mph13.0 kmh 29.46 in997.6 mb - 0.00 in0.0 mm 0.16 in4.1 mm
02:15 PM 44.1°F6.7°C 35.3°F1.8°C 71% 10.4 mph WSW16.7 kmh WSW 13.8 mph22.2 kmh 29.46 in997.6 mb - 0.00 in0.0 mm 0.16 in4.1 mm
02:20 PM 44.0°F6.7°C 34.5°F1.4°C 69% 9.2 mph W14.8 kmh W 11.5 mph18.5 kmh 29.46 in997.6 mb - 0.00 in0.0 mm 0.16 in4.1 mm
02:25 PM 44.0°F6.7°C 34.1°F1.2°C 68% 12.7 mph WNW20.4 kmh WNW 18.4 mph29.6 kmh 29.46 in997.6 mb - 0.00 in0.0 mm 0.16 in4.1 mm
02:30 PM 44.1°F6.7°C 34.2°F1.2°C 68% 12.7 mph WNW20.4 kmh WNW 18.4 mph29.6 kmh 29.47 in998.0 mb - 0.00 in0.0 mm 0.16 in4.1 mm
02:35 PM 43.6°F6.4°C 34.1°F1.2°C 69% 12.7 mph W20.4 kmh W 18.4 mph29.6 kmh 29.47 in998.0 mb - 0.00 in0.0 mm 0.16 in4.1 mm
02:40 PM 42.8°F6.0°C 34.4°F1.3°C 72% 12.7 mph W20.4 kmh W 16.1 mph25.9 kmh 29.47 in998.0 mb - 0.00 in0.0 mm 0.16 in4.1 mm
02:45 PM 42.2°F5.7°C 34.5°F1.4°C 74% 15.0 mph W24.1 kmh W 21.9 mph35.2 kmh 29.48 in998.3 mb - 0.00 in0.0 mm 0.16 in4.1 mm
02:50 PM 41.6°F5.3°C 33.6°F0.9°C 73% 16.1 mph WNW25.9 kmh WNW 19.6 mph31.5 kmh 29.48 in998.3 mb - 0.00 in0.0 mm 0.16 in4.1 mm
02:55 PM 41.1°F5.1°C 33.5°F0.8°C 74% 11.5 mph W18.5 kmh W 16.1 mph25.9 kmh 29.48 in998.3 mb - 0.00 in0.0 mm 0.16 in4.1 mm
03:00 PM 40.9°F4.9°C 33.9°F1.1°C 76% 11.5 mph W18.5 kmh W 19.6 mph31.5 kmh 29.48 in998.3 mb - 0.01 in0.3 mm 0.17 in4.3 mm
03:05 PM 40.7°F4.8°C 33.7°F0.9°C 76% 12.7 mph WSW20.4 kmh WSW 17.3 mph27.8 kmh 29.48 in998.3 mb - 0.00 in0.0 mm 0.17 in4.3 mm
03:10 PM 40.7°F4.8°C 33.7°F0.9°C 76% 10.4 mph WSW16.7 kmh WSW 12.7 mph20.4 kmh 29.48 in998.3 mb - 0.00 in0.0 mm 0.17 in4.3 mm
03:15 PM 40.6°F4.8°C 33.9°F1.1°C 77% 12.7 mph WSW20.4 kmh WSW 18.4 mph29.6 kmh 29.48 in998.3 mb - 0.00 in0.0 mm 0.17 in4.3 mm
03:20 PM 40.3°F4.6°C 33.6°F0.9°C 77% 10.4 mph WSW16.7 kmh WSW 17.3 mph27.8 kmh 29.48 in998.3 mb - 0.00 in0.0 mm 0.17 in4.3 mm
03:25 PM 39.9°F4.4°C 33.3°F0.7°C 77% 11.5 mph WSW18.5 kmh WSW 16.1 mph25.9 kmh 29.49 in998.6 mb - 0.00 in0.0 mm 0.17 in4.3 mm
03:30 PM 39.5°F4.2°C 32.9°F0.5°C 77% 9.2 mph W14.8 kmh W 19.6 mph31.5 kmh 29.50 in999.0 mb - 0.00 in0.0 mm 0.17 in4.3 mm
03:35 PM 39.3°F4.1°C 32.7°F0.4°C 77% 9.2 mph W14.8 kmh W 17.3 mph27.8 kmh 29.50 in999.0 mb - 0.00 in0.0 mm 0.17 in4.3 mm
03:40 PM 39.3°F4.1°C 32.7°F0.4°C 77% 11.5 mph WSW18.5 kmh WSW 19.6 mph31.5 kmh 29.50 in999.0 mb - 0.00 in0.0 mm 0.17 in4.3 mm
03:45 PM 39.3°F4.1°C 32.7°F0.4°C 77% 12.7 mph W20.4 kmh W 17.3 mph27.8 kmh 29.51 in999.3 mb - 0.00 in0.0 mm 0.17 in4.3 mm
03:50 PM 38.7°F3.7°C 32.4°F0.2°C 78% 12.7 mph W20.4 kmh W 19.6 mph31.5 kmh 29.52 in999.7 mb - 0.02 in0.5 mm 0.18 in4.6 mm
03:55 PM 37.5°F3.1°C 31.3°F-0.4°C 78% 16.1 mph NW25.9 kmh NW 25.3 mph40.7 kmh 29.53 in1000.0 mb - 0.02 in0.5 mm 0.19 in4.8 mm
04:00 PM 36.7°F2.6°C 30.5°F-0.8°C 78% 13.8 mph W22.2 kmh W 27.6 mph44.4 kmh 29.52 in999.7 mb - 0.01 in0.3 mm 0.20 in5.1 mm
04:05 PM 36.2°F2.3°C 30.3°F-0.9°C 79% 10.4 mph W16.7 kmh W 12.7 mph20.4 kmh 29.53 in1000.0 mb - 0.00 in0.0 mm 0.20 in5.1 mm
04:10 PM 35.9°F2.2°C 30.1°F-1.1°C 79% 13.8 mph W22.2 kmh W 19.6 mph31.5 kmh 29.53 in1000.0 mb - 0.00 in0.0 mm 0.20 in5.1 mm
04:15 PM 36.0°F2.2°C 30.1°F-1.1°C 79% 10.4 mph W16.7 kmh W 16.1 mph25.9 kmh 29.54 in1000.3 mb - 0.00 in0.0 mm 0.20 in5.1 mm
04:20 PM 36.0°F2.2°C 30.1°F-1.1°C 79% 9.2 mph W14.8 kmh W 13.8 mph22.2 kmh 29.53 in1000.0 mb - 0.00 in0.0 mm 0.20 in5.1 mm
04:25 PM 36.1°F2.3°C 30.2°F-1.0°C 79% 12.7 mph WNW20.4 kmh WNW 16.1 mph25.9 kmh 29.53 in1000.0 mb - 0.01 in0.3 mm 0.21 in5.3 mm
04:30 PM 36.1°F2.3°C 30.2°F-1.0°C 79% 10.4 mph NW16.7 kmh NW 17.3 mph27.8 kmh 29.54 in1000.3 mb - 0.01 in0.3 mm 0.22 in5.6 mm
04:35 PM 35.9°F2.2°C 30.3°F-0.9°C 80% 9.2 mph WNW14.8 kmh WNW 11.5 mph18.5 kmh 29.54 in1000.3 mb - 0.01 in0.3 mm 0.22 in5.6 mm
04:40 PM 35.7°F2.1°C 30.1°F-1.1°C 80% 8.1 mph W13.0 kmh W 12.7 mph20.4 kmh 29.54 in1000.3 mb - 0.01 in0.3 mm 0.23 in5.8 mm
04:45 PM 35.7°F2.1°C 30.1°F-1.1°C 80% 9.2 mph WNW14.8 kmh WNW 12.7 mph20.4 kmh 29.55 in1000.7 mb - 0.00 in0.0 mm 0.23 in5.8 mm
04:50 PM 35.8°F2.1°C 30.2°F-1.0°C 80% 10.4 mph W16.7 kmh W 16.1 mph25.9 kmh 29.55 in1000.7 mb - 0.00 in0.0 mm 0.23 in5.8 mm
04:55 PM 35.7°F2.1°C 30.1°F-1.1°C 80% 5.8 mph W9.3 kmh W 11.5 mph18.5 kmh 29.55 in1000.7 mb - 0.02 in0.5 mm 0.25 in6.4 mm
05:00 PM 35.7°F2.1°C 30.4°F-0.9°C 81% 10.4 mph W16.7 kmh W 15.0 mph24.1 kmh 29.55 in1000.7 mb - 0.00 in0.0 mm 0.25 in6.4 mm
05:05 PM 35.6°F2.0°C 30.4°F-0.9°C 81% 9.2 mph W14.8 kmh W 9.2 mph14.8 kmh 29.55 in1000.7 mb - 0.00 in0.0 mm 0.25 in6.4 mm
05:10 PM 35.7°F2.1°C 30.4°F-0.9°C 81% 5.8 mph W9.3 kmh W 9.2 mph14.8 kmh 29.55 in1000.7 mb - 0.00 in0.0 mm 0.25 in6.4 mm
05:15 PM 35.7°F2.1°C 30.4°F-0.9°C 81% 10.4 mph W16.7 kmh W 13.8 mph22.2 kmh 29.55 in1000.7 mb - 0.00 in0.0 mm 0.25 in6.4 mm
05:20 PM 35.7°F2.1°C 30.4°F-0.9°C 81% 8.1 mph W13.0 kmh W 11.5 mph18.5 kmh 29.55 in1000.7 mb - 0.00 in0.0 mm 0.25 in6.4 mm
05:25 PM 35.6°F2.0°C 30.3°F-0.9°C 81% 9.2 mph WNW14.8 kmh WNW 11.5 mph18.5 kmh 29.55 in1000.7 mb - 0.00 in0.0 mm 0.25 in6.4 mm
05:30 PM 35.5°F1.9°C 30.2°F-1.0°C 81% 10.4 mph WNW16.7 kmh WNW 17.3 mph27.8 kmh 29.55 in1000.7 mb - 0.00 in0.0 mm 0.25 in6.4 mm
05:35 PM 35.5°F1.9°C 30.2°F-1.0°C 81% 6.9 mph W11.1 kmh W 12.7 mph20.4 kmh 29.55 in1000.7 mb - 0.00 in0.0 mm 0.25 in6.4 mm
05:40 PM 35.4°F1.9°C 30.1°F-1.1°C 81% 8.1 mph W13.0 kmh W 12.7 mph20.4 kmh 29.55 in1000.7 mb - 0.00 in0.0 mm 0.25 in6.4 mm
05:45 PM 35.4°F1.9°C 30.1°F-1.1°C 81% 8.1 mph W13.0 kmh W 15.0 mph24.1 kmh 29.55 in1000.7 mb - 0.00 in0.0 mm 0.25 in6.4 mm
05:50 PM 35.4°F1.9°C 30.1°F-1.1°C 81% 9.2 mph W14.8 kmh W 13.8 mph22.2 kmh 29.56 in1001.0 mb - 0.00 in0.0 mm 0.25 in6.4 mm
05:55 PM 35.4°F1.9°C 30.1°F-1.1°C 81% 11.5 mph W18.5 kmh W 16.1 mph25.9 kmh 29.55 in1000.7 mb - 0.00 in0.0 mm 0.25 in6.4 mm
06:00 PM 35.4°F1.9°C 30.1°F-1.1°C 81% 11.5 mph W18.5 kmh W 16.1 mph25.9 kmh 29.55 in1000.7 mb - 0.00 in0.0 mm 0.25 in6.4 mm
06:05 PM 35.4°F1.9°C 30.1°F-1.1°C 81% 9.2 mph W14.8 kmh W 12.7 mph20.4 kmh 29.56 in1001.0 mb - 0.00 in0.0 mm 0.25 in6.4 mm
06:10 PM 35.4°F1.9°C 30.1°F-1.1°C 81% 8.1 mph W13.0 kmh W 13.8 mph22.2 kmh 29.56 in1001.0 mb - 0.00 in0.0 mm 0.25 in6.4 mm
06:15 PM 35.4°F1.9°C 30.1°F-1.1°C 81% 8.1 mph W13.0 kmh W 11.5 mph18.5 kmh 29.57 in1001.4 mb - 0.00 in0.0 mm 0.25 in6.4 mm
06:20 PM 35.4°F1.9°C 29.8°F-1.2°C 80% 10.4 mph WNW16.7 kmh WNW 16.1 mph25.9 kmh 29.57 in1001.4 mb - 0.00 in0.0 mm 0.25 in6.4 mm
06:25 PM 35.4°F1.9°C 29.8°F-1.2°C 80% 10.4 mph W16.7 kmh W 12.7 mph20.4 kmh 29.57 in1001.4 mb - 0.00 in0.0 mm 0.25 in6.4 mm
06:30 PM 35.5°F1.9°C 29.9°F-1.2°C 80% 10.4 mph NW16.7 kmh NW 15.0 mph24.1 kmh 29.57 in1001.4 mb - 0.00 in0.0 mm 0.25 in6.4 mm
06:35 PM 35.5°F1.9°C 29.9°F-1.2°C 80% 11.5 mph W18.5 kmh W 16.1 mph25.9 kmh 29.57 in1001.4 mb - 0.00 in0.0 mm 0.25 in6.4 mm
06:40 PM 35.6°F2.0°C 30.0°F-1.1°C 80% 9.2 mph WNW14.8 kmh WNW 11.5 mph18.5 kmh 29.57 in1001.4 mb - 0.00 in0.0 mm 0.25 in6.4 mm
06:45 PM 35.7°F2.1°C 30.1°F-1.1°C 80% 10.4 mph W16.7 kmh W 17.3 mph27.8 kmh 29.57 in1001.4 mb - 0.00 in0.0 mm 0.25 in6.4 mm
06:50 PM 35.9°F2.2°C 30.0°F-1.1°C 79% 11.5 mph W18.5 kmh W 17.3 mph27.8 kmh 29.57 in1001.4 mb - 0.00 in0.0 mm 0.25 in6.4 mm
06:55 PM 36.0°F2.2°C 30.1°F-1.1°C 79% 10.4 mph WNW16.7 kmh WNW 16.1 mph25.9 kmh 29.57 in1001.4 mb - 0.00 in0.0 mm 0.25 in6.4 mm
07:00 PM 36.1°F2.3°C 30.2°F-1.0°C 79% 10.4 mph WNW16.7 kmh WNW 17.3 mph27.8 kmh 29.58 in1001.7 mb - 0.00 in0.0 mm 0.25 in6.4 mm
07:05 PM 36.1°F2.3°C 30.2°F-1.0°C 79% 10.4 mph WNW16.7 kmh WNW 15.0 mph24.1 kmh 29.58 in1001.7 mb - 0.00 in0.0 mm 0.25 in6.4 mm
07:10 PM 36.1°F2.3°C 30.2°F-1.0°C 79% 9.2 mph W14.8 kmh W 16.1 mph25.9 kmh 29.58 in1001.7 mb - 0.00 in0.0 mm 0.25 in6.4 mm
07:15 PM 36.1°F2.3°C 30.2°F-1.0°C 79% 11.5 mph W18.5 kmh W 17.3 mph27.8 kmh 29.58 in1001.7 mb - 0.00 in0.0 mm 0.25 in6.4 mm
07:20 PM 36.0°F2.2°C 30.1°F-1.1°C 79% 8.1 mph W13.0 kmh W 9.2 mph14.8 kmh 29.58 in1001.7 mb - 0.00 in0.0 mm 0.25 in6.4 mm
07:25 PM 35.9°F2.2°C 30.0°F-1.1°C 79% 9.2 mph W14.8 kmh W 11.5 mph18.5 kmh 29.58 in1001.7 mb - 0.00 in0.0 mm 0.25 in6.4 mm
07:30 PM 35.8°F2.1°C 29.9°F-1.2°C 79% 11.5 mph W18.5 kmh W 16.1 mph25.9 kmh 29.59 in1002.0 mb - 0.00 in0.0 mm 0.25 in6.4 mm
07:35 PM 35.7°F2.1°C 29.8°F-1.2°C 79% 11.5 mph W18.5 kmh W 17.3 mph27.8 kmh 29.59 in1002.0 mb - 0.00 in0.0 mm 0.25 in6.4 mm
07:40 PM 35.7°F2.1°C 29.8°F-1.2°C 79% 11.5 mph W18.5 kmh W 17.3 mph27.8 kmh 29.59 in1002.0 mb - 0.00 in0.0 mm 0.25 in6.4 mm
07:45 PM 35.7°F2.1°C 29.8°F-1.2°C 79% 11.5 mph W18.5 kmh W 15.0 mph24.1 kmh 29.59 in1002.0 mb - 0.00 in0.0 mm 0.25 in6.4 mm
07:50 PM 35.7°F2.1°C 29.8°F-1.2°C 79% 12.7 mph W20.4 kmh W 23.0 mph37.0 kmh 29.59 in1002.0 mb - 0.00 in0.0 mm 0.25 in6.4 mm
07:55 PM 35.6°F2.0°C 29.8°F-1.2°C 79% 11.5 mph WNW18.5 kmh WNW 16.1 mph25.9 kmh 29.59 in1002.0 mb - 0.00 in0.0 mm 0.25 in6.4 mm
08:00 PM 35.6°F2.0°C 29.7°F-1.3°C 79% 10.4 mph W16.7 kmh W 19.6 mph31.5 kmh 29.60 in1002.4 mb - 0.00 in0.0 mm 0.25 in6.4 mm
08:05 PM 35.6°F2.0°C 29.7°F-1.3°C 79% 11.5 mph W18.5 kmh W 17.3 mph27.8 kmh 29.60 in1002.4 mb - 0.00 in0.0 mm 0.25 in6.4 mm
08:10 PM 35.7°F2.1°C 29.8°F-1.2°C 79% 11.5 mph W18.5 kmh W 17.3 mph27.8 kmh 29.61 in1002.7 mb - 0.00 in0.0 mm 0.25 in6.4 mm
08:15 PM 35.7°F2.1°C 29.8°F-1.2°C 79% 13.8 mph W22.2 kmh W 17.3 mph27.8 kmh 29.61 in1002.7 mb - 0.00 in0.0 mm 0.25 in6.4 mm
08:20 PM 35.7°F2.1°C 29.8°F-1.2°C 79% 12.7 mph W20.4 kmh W 19.6 mph31.5 kmh 29.61 in1002.7 mb - 0.00 in0.0 mm 0.25 in6.4 mm
08:25 PM 35.6°F2.0°C 29.7°F-1.3°C 79% 11.5 mph W18.5 kmh W 12.7 mph20.4 kmh 29.61 in1002.7 mb - 0.00 in0.0 mm 0.25 in6.4 mm
08:30 PM 35.5°F1.9°C 29.6°F-1.3°C 79% 11.5 mph W18.5 kmh W 16.1 mph25.9 kmh 29.61 in1002.7 mb - 0.00 in0.0 mm 0.25 in6.4 mm
08:35 PM 35.4°F1.9°C 29.5°F-1.4°C 79% 11.5 mph W18.5 kmh W 16.1 mph25.9 kmh 29.62 in1003.0 mb - 0.00 in0.0 mm 0.25 in6.4 mm
08:40 PM 35.3°F1.8°C 29.4°F-1.4°C 79% 12.7 mph W20.4 kmh W 13.8 mph22.2 kmh 29.62 in1003.0 mb - 0.00 in0.0 mm 0.25 in6.4 mm
08:45 PM 35.3°F1.8°C 29.4°F-1.4°C 79% 9.2 mph W14.8 kmh W 10.4 mph16.7 kmh 29.62 in1003.0 mb - 0.00 in0.0 mm 0.25 in6.4 mm
08:50 PM 35.2°F1.8°C 29.3°F-1.5°C 79% 11.5 mph W18.5 kmh W 15.0 mph24.1 kmh 29.63 in1003.4 mb - 0.00 in0.0 mm 0.25 in6.4 mm
08:55 PM 35.2°F1.8°C 29.3°F-1.5°C 79% 8.1 mph W13.0 kmh W 13.8 mph22.2 kmh 29.63 in1003.4 mb - 0.00 in0.0 mm 0.25 in6.4 mm
09:00 PM 35.2°F1.8°C 29.3°F-1.5°C 79% 10.4 mph W16.7 kmh W 16.1 mph25.9 kmh 29.63 in1003.4 mb - 0.00 in0.0 mm 0.25 in6.4 mm
09:05 PM 35.2°F1.8°C 29.3°F-1.5°C 79% 9.2 mph W14.8 kmh W 11.5 mph18.5 kmh 29.63 in1003.4 mb - 0.00 in0.0 mm 0.25 in6.4 mm
09:10 PM 35.2°F1.8°C 29.3°F-1.5°C 79% 8.1 mph W13.0 kmh W 10.4 mph16.7 kmh 29.63 in1003.4 mb - 0.00 in0.0 mm 0.25 in6.4 mm
09:15 PM 35.2°F1.8°C 29.3°F-1.5°C 79% 9.2 mph W14.8 kmh W 13.8 mph22.2 kmh 29.63 in1003.4 mb - 0.00 in0.0 mm 0.25 in6.4 mm
09:20 PM 35.3°F1.8°C 29.4°F-1.4°C 79% 9.2 mph W14.8 kmh W 12.7 mph20.4 kmh 29.63 in1003.4 mb - 0.00 in0.0 mm 0.25 in6.4 mm
09:25 PM 35.3°F1.8°C 29.4°F-1.4°C 79% 9.2 mph W14.8 kmh W 15.0 mph24.1 kmh 29.64 in1003.7 mb - 0.00 in0.0 mm 0.25 in6.4 mm
09:30 PM 35.3°F1.8°C 29.4°F-1.4°C 79% 4.6 mph W7.4 kmh W 8.1 mph13.0 kmh 29.64 in1003.7 mb - 0.00 in0.0 mm 0.25 in6.4 mm
09:35 PM 35.3°F1.8°C 29.4°F-1.4°C 79% 11.5 mph W18.5 kmh W 12.7 mph20.4 kmh 29.64 in1003.7 mb - 0.00 in0.0 mm 0.25 in6.4 mm
09:40 PM 35.2°F1.8°C 29.4°F-1.4°C 79% 8.1 mph WNW13.0 kmh WNW 11.5 mph18.5 kmh 29.64 in1003.7 mb - 0.00 in0.0 mm 0.25 in6.4 mm
09:45 PM 35.2°F1.8°C 29.3°F-1.5°C 79% 6.9 mph WNW11.1 kmh WNW 11.5 mph18.5 kmh 29.64 in1003.7 mb - 0.00 in0.0 mm 0.25 in6.4 mm
09:50 PM 35.2°F1.8°C 29.3°F-1.5°C 79% 8.1 mph WNW13.0 kmh WNW 12.7 mph20.4 kmh 29.64 in1003.7 mb - 0.00 in0.0 mm 0.25 in6.4 mm
09:55 PM 35.4°F1.9°C 29.5°F-1.4°C 79% 6.9 mph WNW11.1 kmh WNW 11.5 mph18.5 kmh 29.64 in1003.7 mb - 0.00 in0.0 mm 0.25 in6.4 mm
10:00 PM 35.5°F1.9°C 29.3°F-1.5°C 78% 6.9 mph WNW11.1 kmh WNW 11.5 mph18.5 kmh 29.64 in1003.7 mb - 0.00 in0.0 mm 0.25 in6.4 mm
10:05 PM 35.5°F1.9°C 29.3°F-1.5°C 78% 5.8 mph WNW9.3 kmh WNW 11.5 mph18.5 kmh 29.64 in1003.7 mb - 0.00 in0.0 mm 0.25 in6.4 mm
10:10 PM 35.4°F1.9°C 29.2°F-1.6°C 78% 8.1 mph NW13.0 kmh NW 11.5 mph18.5 kmh 29.64 in1003.7 mb - 0.00 in0.0 mm 0.25 in6.4 mm
10:15 PM 35.4°F1.9°C 29.2°F-1.6°C 78% 5.8 mph NW9.3 kmh NW 8.1 mph13.0 kmh 29.64 in1003.7 mb - 0.00 in0.0 mm 0.25 in6.4 mm
10:20 PM 35.3°F1.8°C 29.4°F-1.4°C 79% 4.6 mph NW7.4 kmh NW 5.8 mph9.3 kmh 29.64 in1003.7 mb - 0.00 in0.0 mm 0.25 in6.4 mm
10:25 PM 35.1°F1.7°C 29.2°F-1.6°C 79% 8.1 mph NW13.0 kmh NW 11.5 mph18.5 kmh 29.64 in1003.7 mb - 0.00 in0.0 mm 0.25 in6.4 mm
10:30 PM 35.0°F1.7°C 29.1°F-1.6°C 79% 4.6 mph WNW7.4 kmh WNW 11.5 mph18.5 kmh 29.64 in1003.7 mb - 0.00 in0.0 mm 0.25 in6.4 mm
10:35 PM 35.0°F1.7°C 29.1°F-1.6°C 79% 5.8 mph WNW9.3 kmh WNW 8.1 mph13.0 kmh 29.64 in1003.7 mb - 0.00 in0.0 mm 0.25 in6.4 mm
10:40 PM 35.0°F1.7°C 29.1°F-1.6°C 79% 3.5 mph WNW5.6 kmh WNW 5.8 mph9.3 kmh 29.64 in1003.7 mb - 0.00 in0.0 mm 0.25 in6.4 mm
10:45 PM 34.9°F1.6°C 28.7°F-1.8°C 78% 4.6 mph WNW7.4 kmh WNW 10.4 mph16.7 kmh 29.64 in1003.7 mb - 0.00 in0.0 mm 0.25 in6.4 mm
10:50 PM 34.8°F1.6°C 29.0°F-1.7°C 79% 4.6 mph WNW7.4 kmh WNW 8.1 mph13.0 kmh 29.65 in1004.1 mb - 0.00 in0.0 mm 0.25 in6.4 mm
10:55 PM 34.6°F1.4°C 28.8°F-1.8°C 79% 4.6 mph W7.4 kmh W 10.4 mph16.7 kmh 29.65 in1004.1 mb - 0.00 in0.0 mm 0.25 in6.4 mm
11:00 PM 34.5°F1.4°C 28.7°F-1.8°C 79% 5.8 mph W9.3 kmh W 8.1 mph13.0 kmh 29.65 in1004.1 mb - 0.00 in0.0 mm 0.25 in6.4 mm
11:05 PM 34.4°F1.3°C 28.6°F-1.9°C 79% 4.6 mph W7.4 kmh W 9.2 mph14.8 kmh 29.66 in1004.4 mb - 0.00 in0.0 mm 0.25 in6.4 mm
11:10 PM 34.5°F1.4°C 28.7°F-1.8°C 79% 4.6 mph WNW7.4 kmh WNW 8.1 mph13.0 kmh 29.66 in1004.4 mb - 0.00 in0.0 mm 0.25 in6.4 mm
11:15 PM 34.7°F1.5°C 28.6°F-1.9°C 78% 5.8 mph W9.3 kmh W 8.1 mph13.0 kmh 29.66 in1004.4 mb - 0.00 in0.0 mm 0.25 in6.4 mm
11:20 PM 34.8°F1.6°C 28.6°F-1.9°C 78% 5.8 mph WNW9.3 kmh WNW 12.7 mph20.4 kmh 29.66 in1004.4 mb - 0.00 in0.0 mm 0.25 in6.4 mm
11:25 PM 35.1°F1.7°C 28.6°F-1.9°C 77% 5.8 mph WNW9.3 kmh WNW 11.5 mph18.5 kmh 29.66 in1004.4 mb - 0.00 in0.0 mm 0.25 in6.4 mm
11:30 PM 35.1°F1.7°C 28.3°F-2.1°C 76% 6.9 mph NW11.1 kmh NW 11.5 mph18.5 kmh 29.67 in1004.7 mb - 0.00 in0.0 mm 0.25 in6.4 mm
11:35 PM 35.1°F1.7°C 28.0°F-2.2°C 75% 4.6 mph WNW7.4 kmh WNW 8.1 mph13.0 kmh 29.68 in1005.1 mb - 0.00 in0.0 mm 0.25 in6.4 mm
11:40 PM 35.0°F1.7°C 27.9°F-2.3°C 75% 9.2 mph NW14.8 kmh NW 12.7 mph20.4 kmh 29.67 in1004.7 mb - 0.00 in0.0 mm 0.25 in6.4 mm
11:45 PM 35.0°F1.7°C 27.9°F-2.3°C 75% 8.1 mph WNW13.0 kmh WNW 11.5 mph18.5 kmh 29.68 in1005.1 mb - 0.00 in0.0 mm 0.25 in6.4 mm
11:50 PM 34.8°F1.6°C 27.7°F-2.4°C 75% 9.2 mph WNW14.8 kmh WNW 12.7 mph20.4 kmh 29.68 in1005.1 mb - 0.00 in0.0 mm 0.25 in6.4 mm
11:55 PM 34.8°F1.6°C 27.7°F-2.4°C 75% 10.4 mph NW16.7 kmh NW 13.8 mph22.2 kmh 29.68 in1005.1 mb - 0.00 in0.0 mm 0.25 in6.4 mm